Time;durP1;ratioP1;P1;durP2;ratioP2;P2;SDS_P1;SDS_P2;PMS_P1;PMS_P2;Temp;Humidity;BMP_temperature;BMP_pressure;BME280_temperature;BME280_humidity;BME280_pressure;Samples;Min_cycle;Max_cycle;Signal;HPM_P1;HPM_P2
2021/07/15 00:00:54;;;;;;;2.70;2.47;;;19.30;99.90;;;;;;2107384;28;20051;-70
2021/07/15 00:01:54;;;;;;;3.78;2.20;;;19.30;99.90;;;;;;2106839;28;20016;-70
2021/07/15 00:02:56;;;;;;;17.38;2.92;;;19.30;99.90;;;;;;2107047;28;20020;-70
2021/07/15 00:03:57;;;;;;;2.85;2.40;;;19.30;99.90;;;;;;2106751;28;20023;-70
2021/07/15 00:04:57;;;;;;;6.05;2.55;;;19.30;99.90;;;;;;2106607;28;20052;-70
2021/07/15 00:05:59;;;;;;;6.28;2.15;;;19.30;99.90;;;;;;2107462;28;20213;-70
2021/07/15 00:06:59;;;;;;;5.65;2.17;;;19.30;99.90;;;;;;2107045;28;20148;-70
2021/07/15 00:08:00;;;;;;;4.50;2.03;;;19.30;99.90;;;;;;2107478;28;20172;-70
2021/07/15 00:09:01;;;;;;;3.88;2.10;;;19.30;99.90;;;;;;2107224;28;20028;-70
2021/07/15 00:10:11;;;;;;;5.25;2.67;;;19.30;99.90;;;;;;2107459;28;20063;-70
2021/07/15 00:11:13;;;;;;;6.00;2.25;;;19.30;99.90;;;;;;2106477;28;20039;-70
2021/07/15 00:12:16;;;;;;;3.80;3.10;;;19.30;99.90;;;;;;2106229;28;20051;-70
2021/07/15 00:13:17;;;;;;;3.47;2.10;;;19.30;99.90;;;;;;2107269;28;20028;-70
2021/07/15 00:14:20;;;;;;;4.63;2.33;;;19.30;99.90;;;;;;2107333;28;20028;-70
2021/07/15 00:15:23;;;;;;;2.65;2.45;;;19.30;99.90;;;;;;2106971;28;20032;-70
2021/07/15 00:16:24;;;;;;;4.15;2.70;;;19.30;99.90;;;;;;2107218;28;20039;-70
2021/07/15 00:17:25;;;;;;;6.65;3.10;;;19.30;99.90;;;;;;2106942;28;20058;-70
2021/07/15 00:18:29;;;;;;;3.08;2.67;;;19.30;99.90;;;;;;2107035;28;20069;-70
2021/07/15 00:19:29;;;;;;;4.30;2.78;;;19.30;99.90;;;;;;2106907;28;20065;-70
2021/07/15 00:20:35;;;;;;;4.53;3.30;;;19.30;99.90;;;;;;2107383;28;20047;-70
2021/07/15 00:21:36;;;;;;;7.22;2.90;;;19.30;99.90;;;;;;2106752;28;20020;-70
2021/07/15 00:22:36;;;;;;;3.90;3.50;;;19.30;99.90;;;;;;2107261;28;20040;-70
2021/07/15 00:23:38;;;;;;;4.68;3.20;;;19.30;99.90;;;;;;2107088;28;20024;-70
2021/07/15 00:24:39;;;;;;;2.80;2.47;;;19.30;99.90;;;;;;2107183;28;20107;-70
2021/07/15 00:25:40;;;;;;;3.85;3.00;;;19.30;99.90;;;;;;2107179;28;20016;-70
2021/07/15 00:26:41;;;;;;;5.50;2.50;;;19.30;99.90;;;;;;2106881;28;20047;-70
2021/07/15 00:27:42;;;;;;;3.35;3.00;;;19.30;99.90;;;;;;2107280;28;20036;-70
2021/07/15 00:28:42;;;;;;;4.53;3.03;;;19.30;99.90;;;;;;2107133;28;20071;-70
2021/07/15 00:29:43;;;;;;;4.15;3.28;;;19.30;99.90;;;;;;2107199;28;20035;-70
2021/07/15 00:30:44;;;;;;;6.18;3.53;;;19.30;99.90;;;;;;2106151;28;20028;-70
2021/07/15 00:31:45;;;;;;;3.50;2.88;;;19.30;99.90;;;;;;2106113;28;20128;-70
2021/07/15 00:32:45;;;;;;;4.30;2.88;;;19.30;99.90;;;;;;2107237;28;20067;-70
2021/07/15 00:33:46;;;;;;;2.72;2.25;;;19.30;99.90;;;;;;2106994;28;20248;-70
2021/07/15 00:34:47;;;;;;;3.70;2.75;;;19.30;99.90;;;;;;2106709;28;20028;-70
2021/07/15 00:35:47;;;;;;;3.65;2.10;;;19.30;99.90;;;;;;2107406;28;20072;-70
2021/07/15 00:36:48;;;;;;;4.38;2.50;;;19.30;99.90;;;;;;2106303;28;20024;-70
2021/07/15 00:37:49;;;;;;;3.53;2.80;;;19.30;99.90;;;;;;2098058;28;20480;-70
2021/07/15 00:38:49;;;;;;;3.40;2.60;;;19.30;99.90;;;;;;2097955;28;20029;-70
2021/07/15 00:39:50;;;;;;;11.57;3.03;;;19.30;99.90;;;;;;2103653;28;20017;-70
2021/07/15 00:40:51;;;;;;;6.07;2.60;;;19.30;99.90;;;;;;2107030;28;20024;-70
2021/07/15 00:41:51;;;;;;;7.03;2.67;;;19.30;99.90;;;;;;2106473;28;20024;-70
2021/07/15 00:42:52;;;;;;;4.55;2.90;;;19.30;99.90;;;;;;2106926;28;20186;-70
2021/07/15 00:43:53;;;;;;;5.88;2.95;;;19.30;99.90;;;;;;2107205;28;20074;-70
2021/07/15 00:44:53;;;;;;;8.40;3.35;;;19.30;99.90;;;;;;2106862;28;20103;-70
2021/07/15 00:45:54;;;;;;;3.75;3.25;;;19.40;99.90;;;;;;2106723;28;20058;-70
2021/07/15 00:46:54;;;;;;;10.13;3.70;;;19.30;99.90;;;;;;2106984;28;20506;-70
2021/07/15 00:47:55;;;;;;;5.32;3.47;;;19.40;99.90;;;;;;2107223;28;20039;-70
2021/07/15 00:48:56;;;;;;;3.08;2.88;;;19.40;99.90;;;;;;2106712;28;20450;-70
2021/07/15 00:49:56;;;;;;;4.93;2.88;;;19.40;99.90;;;;;;2106976;28;20027;-70
2021/07/15 00:50:57;;;;;;;4.53;3.30;;;19.40;99.90;;;;;;2107065;28;20039;-70
2021/07/15 00:51:58;;;;;;;3.25;2.75;;;19.40;99.90;;;;;;2106435;28;20032;-70
2021/07/15 00:53:00;;;;;;;5.45;2.05;;;19.40;99.90;;;;;;2106897;28;20091;-70
2021/07/15 00:54:01;;;;;;;4.53;2.63;;;19.40;99.90;;;;;;2106203;28;20028;-70
2021/07/15 00:55:03;;;;;;;3.08;2.60;;;19.40;99.90;;;;;;2106207;28;20024;-70
2021/07/15 00:56:05;;;;;;;3.63;2.40;;;19.40;99.90;;;;;;2106328;28;20052;-70
2021/07/15 00:57:06;;;;;;;3.28;2.95;;;19.40;99.90;;;;;;2106476;28;20024;-70
2021/07/15 00:58:10;;;;;;;3.72;3.25;;;19.40;99.90;;;;;;2107103;28;20077;-70
2021/07/15 00:59:10;;;;;;;3.78;2.95;;;19.40;99.90;;;;;;2106753;28;20024;-70
2021/07/15 01:00:15;;;;;;;4.00;2.60;;;19.40;99.90;;;;;;2107057;28;20032;-70
2021/07/15 01:01:15;;;;;;;3.47;2.88;;;19.40;99.90;;;;;;2107031;28;20074;-70
2021/07/15 01:02:16;;;;;;;5.05;2.97;;;19.40;99.90;;;;;;2106369;28;20078;-70
2021/07/15 01:03:21;;;;;;;7.15;3.67;;;19.40;99.90;;;;;;2106914;28;20573;-70
2021/07/15 01:04:21;;;;;;;7.20;3.58;;;19.40;99.90;;;;;;2105939;28;20107;-70
2021/07/15 01:05:25;;;;;;;5.35;2.90;;;19.40;99.90;;;;;;2106164;28;20025;-70
2021/07/15 01:06:25;;;;;;;4.90;3.22;;;19.40;99.90;;;;;;2107008;28;20066;-70
2021/07/15 01:07:26;;;;;;;4.65;2.60;;;19.40;99.90;;;;;;2106611;28;20190;-70
2021/07/15 01:08:26;;;;;;;5.57;2.42;;;19.40;99.90;;;;;;2106793;28;20020;-70
2021/07/15 01:09:29;;;;;;;3.85;2.63;;;19.40;99.90;;;;;;2106582;28;20060;-70
2021/07/15 01:10:33;;;;;;;2.50;2.30;;;19.40;99.90;;;;;;2107081;28;20025;-70
2021/07/15 01:11:50;;;;;;;2.63;2.42;;;19.40;99.90;;;;;;2106246;28;20032;-70
2021/07/15 01:13:22;;;;;;;2.22;2.13;;;19.40;99.90;;;;;;2107135;28;20028;-70
2021/07/15 01:14:30;;;;;;;2.92;2.38;;;19.40;99.90;;;;;;2106634;28;20383;-70
2021/07/15 01:15:40;;;;;;;7.70;2.95;;;19.40;99.90;;;;;;2106914;28;20118;-70
2021/07/15 01:17:00;;;;;;;6.55;2.67;;;19.40;99.90;;;;;;2106275;28;20012;-70
2021/07/15 01:18:23;;;;;;;2.08;1.98;;;19.40;99.90;;;;;;2106736;28;20020;-70
2021/07/15 01:19:57;;;;;;;5.38;2.20;;;19.40;99.90;;;;;;2106832;28;20077;-70
2021/07/15 01:21:35;;;;;;;2.85;2.28;;;19.30;99.90;;;;;;2106874;28;20028;-70
2021/07/15 01:22:43;;;;;;;2.33;2.15;;;19.30;99.90;;;;;;2106754;28;20426;-70
2021/07/15 01:24:05;;;;;;;7.00;2.65;;;19.30;99.90;;;;;;2106891;28;20027;-70
2021/07/15 01:25:20;;;;;;;3.13;1.80;;;19.30;99.90;;;;;;2106632;28;20611;-70
2021/07/15 01:26:49;;;;;;;3.30;2.17;;;19.30;99.90;;;;;;2106524;28;20475;-70
2021/07/15 01:28:05;;;;;;;2.83;2.08;;;19.30;99.90;;;;;;2106857;28;20039;-70
2021/07/15 01:29:38;;;;;;;6.93;2.38;;;19.30;99.90;;;;;;2106662;28;20107;-70
2021/07/15 01:30:55;;;;;;;4.55;2.78;;;19.30;99.90;;;;;;2106559;28;20027;-70
2021/07/15 01:32:00;;;;;;;3.40;2.50;;;19.20;99.90;;;;;;2106218;28;20024;-70
2021/07/15 01:33:09;;;;;;;4.43;2.55;;;19.20;99.90;;;;;;2106545;28;20016;-70
2021/07/15 01:34:13;;;;;;;6.22;3.10;;;19.20;99.90;;;;;;2106642;28;20016;-70
2021/07/15 01:35:17;;;;;;;2.65;2.45;;;19.20;99.90;;;;;;2106278;28;20115;-70
2021/07/15 01:36:22;;;;;;;2.88;2.67;;;19.20;99.90;;;;;;2106618;28;20024;-70
2021/07/15 01:37:24;;;;;;;4.30;3.22;;;19.20;99.90;;;;;;2106474;28;20024;-70
2021/07/15 01:38:29;;;;;;;5.10;2.85;;;19.20;99.90;;;;;;2106636;28;20069;-70
2021/07/15 01:39:34;;;;;;;6.22;3.08;;;19.20;99.90;;;;;;2106058;28;20356;-70
2021/07/15 01:40:42;;;;;;;3.67;2.53;;;19.30;99.90;;;;;;2106788;28;20504;-70
2021/07/15 01:41:47;;;;;;;2.63;2.35;;;19.30;99.90;;;;;;2106120;28;20386;-70
2021/07/15 01:42:54;;;;;;;2.78;2.38;;;19.30;99.90;;;;;;2106581;28;20074;-70
2021/07/15 01:44:05;;;;;;;3.70;2.72;;;19.30;99.90;;;;;;2106014;28;20032;-70
2021/07/15 01:45:06;;;;;;;4.25;2.05;;;19.30;99.90;;;;;;2105892;28;20020;-70
2021/07/15 01:46:08;;;;;;;4.47;1.63;;;19.30;99.90;;;;;;2106661;28;20495;-70
2021/07/15 01:47:09;;;;;;;7.15;2.15;;;19.30;99.90;;;;;;2106553;28;20020;-70
2021/07/15 01:48:09;;;;;;;5.18;1.75;;;19.30;99.90;;;;;;2106765;28;20051;-70
2021/07/15 01:49:12;;;;;;;2.65;1.20;;;19.30;99.90;;;;;;2106305;28;20028;-70
2021/07/15 01:50:13;;;;;;;2.45;1.42;;;19.30;99.90;;;;;;2106645;28;20027;-70
2021/07/15 01:51:14;;;;;;;1.58;1.48;;;19.30;99.90;;;;;;2105966;28;20031;-70
2021/07/15 01:52:15;;;;;;;2.03;1.63;;;19.30;99.90;;;;;;2105938;28;20035;-70
2021/07/15 01:53:16;;;;;;;2.78;1.80;;;19.30;99.90;;;;;;2106382;28;20052;-70
2021/07/15 01:54:18;;;;;;;4.97;1.58;;;19.20;99.90;;;;;;2106412;28;20024;-70
2021/07/15 01:55:20;;;;;;;3.30;1.83;;;19.30;99.90;;;;;;2102055;28;20069;-70
2021/07/15 01:56:21;;;;;;;2.33;1.65;;;19.30;99.90;;;;;;2106425;28;20144;-70
2021/07/15 01:57:24;;;;;;;1.52;1.40;;;19.30;99.90;;;;;;2106179;28;20501;-70
2021/07/15 01:58:28;;;;;;;1.77;1.33;;;19.30;99.90;;;;;;2106664;28;20028;-70
2021/07/15 01:59:32;;;;;;;1.75;1.60;;;19.30;99.90;;;;;;2105655;28;20027;-70
2021/07/15 02:00:34;;;;;;;2.15;1.67;;;19.30;99.90;;;;;;2105859;28;20520;-70
2021/07/15 02:01:37;;;;;;;3.17;1.92;;;19.30;99.90;;;;;;2105647;28;20038;-70
2021/07/15 02:02:40;;;;;;;1.20;1.10;;;19.30;99.90;;;;;;2106490;28;20035;-70
2021/07/15 02:03:48;;;;;;;2.03;1.30;;;19.30;99.90;;;;;;2106334;28;20039;-70
2021/07/15 02:04:52;;;;;;;2.97;1.67;;;19.30;99.90;;;;;;2106348;28;20020;-70
2021/07/15 02:05:54;;;;;;;2.08;1.73;;;19.30;99.90;;;;;;2106077;28;20016;-70
2021/07/15 02:06:55;;;;;;;2.30;1.67;;;19.20;99.90;;;;;;2106141;28;20050;-70
2021/07/15 02:07:59;;;;;;;3.78;1.98;;;19.30;99.90;;;;;;2106365;28;20387;-70
2021/07/15 02:09:00;;;;;;;2.72;1.38;;;19.30;99.90;;;;;;2106535;28;20107;-70
2021/07/15 02:10:05;;;;;;;3.42;1.70;;;19.30;99.90;;;;;;2106270;28;20080;-70
2021/07/15 02:11:07;;;;;;;1.98;1.75;;;19.30;99.90;;;;;;2106322;28;20071;-70
2021/07/15 02:12:08;;;;;;;2.65;1.58;;;19.30;99.90;;;;;;2105747;28;20127;-70
2021/07/15 02:13:09;;;;;;;6.35;2.10;;;19.30;99.90;;;;;;2106378;28;20024;-70
2021/07/15 02:14:12;;;;;;;3.28;1.90;;;19.30;99.90;;;;;;2105986;28;20375;-70
2021/07/15 02:15:13;;;;;;;2.35;1.80;;;19.30;99.90;;;;;;2106342;28;20027;-70
2021/07/15 02:16:16;;;;;;;4.82;2.28;;;19.30;99.90;;;;;;2106316;28;20472;-70
2021/07/15 02:17:17;;;;;;;5.35;2.50;;;19.30;99.90;;;;;;2106322;28;20491;-70
2021/07/15 02:18:22;;;;;;;2.92;2.30;;;19.30;99.90;;;;;;2105860;28;20043;-70
2021/07/15 02:19:23;;;;;;;2.08;1.63;;;19.30;99.90;;;;;;2106169;28;20030;-70
2021/07/15 02:20:24;;;;;;;2.33;2.10;;;19.30;99.90;;;;;;2106254;28;20068;-70
2021/07/15 02:21:28;;;;;;;3.67;2.10;;;19.30;99.90;;;;;;2106013;28;20026;-70
2021/07/15 02:22:29;;;;;;;2.20;1.77;;;19.20;99.90;;;;;;2105607;28;20058;-70
2021/07/15 02:23:30;;;;;;;2.20;1.90;;;19.30;99.90;;;;;;2106368;28;20016;-70
2021/07/15 02:24:33;;;;;;;3.40;1.88;;;19.30;99.90;;;;;;2106150;28;20131;-70
2021/07/15 02:25:37;;;;;;;2.33;1.83;;;19.30;99.90;;;;;;2106297;28;20024;-70
2021/07/15 02:26:40;;;;;;;2.22;1.80;;;19.30;99.90;;;;;;2106005;28;20456;-70
2021/07/15 02:27:44;;;;;;;4.22;2.10;;;19.30;99.90;;;;;;2106202;28;20055;-70
2021/07/15 02:28:44;;;;;;;2.78;2.00;;;19.30;99.90;;;;;;2105978;28;20031;-70
2021/07/15 02:29:45;;;;;;;4.53;2.85;;;19.30;99.90;;;;;;2105687;28;20024;-70
2021/07/15 02:30:48;;;;;;;2.63;2.22;;;19.30;99.90;;;;;;2105428;28;20028;-70
2021/07/15 02:31:54;;;;;;;2.65;2.00;;;19.40;99.90;;;;;;2105710;28;20035;-70
2021/07/15 02:33:03;;;;;;;4.95;2.28;;;19.40;99.90;;;;;;2106132;28;20020;-70
2021/07/15 02:34:09;;;;;;;2.78;1.90;;;19.30;99.90;;;;;;2105642;28;20032;-70
2021/07/15 02:35:14;;;;;;;2.72;1.85;;;19.30;99.90;;;;;;2105496;28;20440;-70
2021/07/15 02:36:17;;;;;;;2.55;1.85;;;19.30;99.90;;;;;;2105762;28;20403;-70
2021/07/15 02:37:22;;;;;;;4.47;2.22;;;19.40;99.90;;;;;;2106069;28;20031;-70
2021/07/15 02:38:25;;;;;;;3.13;2.17;;;19.40;99.90;;;;;;2106315;28;20089;-70
2021/07/15 02:39:26;;;;;;;4.53;2.10;;;19.40;99.90;;;;;;2106008;28;20028;-70
2021/07/15 02:40:26;;;;;;;4.93;2.50;;;19.40;99.90;;;;;;2106099;28;20025;-70
2021/07/15 02:41:27;;;;;;;3.72;1.83;;;19.40;99.90;;;;;;2105591;28;20532;-70
2021/07/15 02:42:28;;;;;;;3.25;2.10;;;19.40;99.90;;;;;;2106024;28;20028;-70
2021/07/15 02:43:29;;;;;;;3.03;2.30;;;19.40;99.90;;;;;;2113998;28;20023;-70
2021/07/15 02:44:30;;;;;;;5.20;2.28;;;19.40;99.90;;;;;;2114537;28;20034;-70
2021/07/15 02:45:31;;;;;;;2.95;2.17;;;19.40;99.90;;;;;;2114448;28;20451;-70
2021/07/15 02:46:32;;;;;;;1.73;1.60;;;19.40;99.90;;;;;;2114506;28;20565;-70
2021/07/15 02:47:33;;;;;;;4.10;2.40;;;19.40;99.90;;;;;;2114487;28;20379;-70
2021/07/15 02:48:33;;;;;;;2.17;2.05;;;19.40;99.90;;;;;;2114474;28;20027;-70
2021/07/15 02:49:34;;;;;;;2.75;2.13;;;19.40;99.90;;;;;;2114406;28;20024;-70
2021/07/15 02:50:35;;;;;;;2.42;2.22;;;19.40;99.90;;;;;;2114596;28;20030;-70
2021/07/15 02:51:35;;;;;;;5.13;2.13;;;19.40;99.90;;;;;;2113599;28;20479;-70
2021/07/15 02:52:36;;;;;;;2.08;1.90;;;19.40;99.90;;;;;;2114558;28;20051;-70
2021/07/15 02:53:38;;;;;;;5.13;2.25;;;19.40;99.90;;;;;;2114172;28;20024;-70
2021/07/15 02:54:39;;;;;;;3.30;2.00;;;19.40;99.90;;;;;;2114417;28;20038;-70
2021/07/15 02:55:45;;;;;;;1.85;1.73;;;19.40;99.90;;;;;;2114289;28;20024;-70
2021/07/15 02:56:54;;;;;;;2.65;2.38;;;19.40;99.90;;;;;;2114678;28;20016;-70
2021/07/15 02:58:01;;;;;;;3.55;2.17;;;19.40;99.90;;;;;;2114185;28;20031;-70
2021/07/15 02:59:20;;;;;;;2.60;2.00;;;19.40;99.90;;;;;;2114550;28;20019;-70
2021/07/15 03:00:20;;;;;;;3.60;2.15;;;19.40;99.90;;;;;;2114644;28;20016;-70
2021/07/15 03:01:25;;;;;;;4.28;2.03;;;19.40;99.90;;;;;;2114172;28;20114;-70
2021/07/15 03:02:34;;;;;;;2.78;2.00;;;19.40;99.90;;;;;;2114111;28;20020;-70
2021/07/15 03:03:58;;;;;;;3.72;1.70;;;19.40;99.90;;;;;;2114663;28;20077;-70
2021/07/15 03:05:09;;;;;;;2.65;2.20;;;19.40;99.90;;;;;;2114581;28;20020;-70
2021/07/15 03:06:16;;;;;;;3.42;2.30;;;19.40;99.90;;;;;;2114079;28;20085;-70
2021/07/15 03:07:20;;;;;;;2.85;2.38;;;19.40;99.90;;;;;;2114427;28;20380;-70
2021/07/15 03:08:27;;;;;;;3.40;2.40;;;19.40;99.90;;;;;;2114422;28;20032;-70
2021/07/15 03:09:30;;;;;;;4.65;2.70;;;19.40;99.90;;;;;;2114400;28;20027;-70
2021/07/15 03:10:32;;;;;;;3.00;2.70;;;19.40;99.90;;;;;;2114451;28;20365;-70
2021/07/15 03:11:39;;;;;;;2.60;2.40;;;19.40;99.90;;;;;;2113821;28;20487;-70
2021/07/15 03:12:41;;;;;;;6.15;2.33;;;19.40;99.90;;;;;;2114345;28;20020;-70
2021/07/15 03:13:45;;;;;;;2.30;2.10;;;19.40;99.90;;;;;;2114542;28;20059;-70
2021/07/15 03:14:46;;;;;;;3.00;2.45;;;19.40;99.90;;;;;;2114205;28;20352;-70
2021/07/15 03:15:47;;;;;;;4.82;2.22;;;19.40;99.90;;;;;;2114280;28;20114;-70
2021/07/15 03:16:48;;;;;;;1.85;1.75;;;19.40;99.90;;;;;;2106819;28;20028;-70
2021/07/15 03:17:50;;;;;;;2.95;1.60;;;19.40;99.90;;;;;;2106128;28;20020;-70
2021/07/15 03:18:53;;;;;;;2.38;2.17;;;19.40;99.90;;;;;;2105753;28;20040;-70
2021/07/15 03:19:58;;;;;;;2.65;2.45;;;19.40;99.90;;;;;;2106072;28;20329;-70
2021/07/15 03:21:04;;;;;;;2.72;2.30;;;19.40;99.90;;;;;;2105846;28;20103;-70
2021/07/15 03:22:07;;;;;;;5.80;2.78;;;19.40;99.90;;;;;;2105268;28;20024;-70
2021/07/15 03:23:17;;;;;;;2.80;2.60;;;19.40;99.90;;;;;;2105844;28;20052;-70
2021/07/15 03:24:19;;;;;;;3.92;3.00;;;19.40;99.90;;;;;;2105838;28;20111;-70
2021/07/15 03:25:21;;;;;;;3.25;2.95;;;19.40;99.90;;;;;;2104811;28;20379;-70
2021/07/15 03:26:23;;;;;;;3.42;2.85;;;19.30;99.90;;;;;;2105234;28;20054;-70
2021/07/15 03:27:26;;;;;;;4.53;3.00;;;19.40;99.90;;;;;;2105973;28;20032;-70
2021/07/15 03:28:31;;;;;;;7.45;3.55;;;19.40;99.90;;;;;;2105669;28;20020;-70
2021/07/15 03:29:33;;;;;;;4.10;3.25;;;19.40;99.90;;;;;;2106028;28;20040;-70
2021/07/15 03:30:36;;;;;;;3.25;2.95;;;19.30;99.90;;;;;;2105737;28;20559;-70
2021/07/15 03:31:36;;;;;;;5.72;3.83;;;19.30;99.90;;;;;;2104548;28;20065;-70
2021/07/15 03:32:38;;;;;;;3.70;3.40;;;19.30;99.90;;;;;;2105411;28;20043;-70
2021/07/15 03:33:40;;;;;;;3.63;3.33;;;19.30;99.90;;;;;;2105931;28;20475;-70
2021/07/15 03:34:41;;;;;;;6.35;3.47;;;19.30;99.90;;;;;;2107097;28;20039;-70
2021/07/15 03:35:43;;;;;;;3.83;3.40;;;19.30;99.90;;;;;;2107661;28;20028;-70
2021/07/15 03:36:49;;;;;;;4.45;3.42;;;19.20;99.90;;;;;;2107342;28;20020;-70
2021/07/15 03:37:50;;;;;;;5.07;3.10;;;19.30;99.90;;;;;;2107356;28;20476;-70
2021/07/15 03:38:52;;;;;;;4.50;3.40;;;19.20;99.90;;;;;;2107646;28;20053;-70
2021/07/15 03:39:53;;;;;;;3.78;3.47;;;19.30;99.90;;;;;;2107434;28;20012;-70
2021/07/15 03:40:55;;;;;;;3.30;3.00;;;19.30;99.90;;;;;;2107820;28;20024;-70
2021/07/15 03:41:56;;;;;;;3.70;3.40;;;19.30;99.90;;;;;;2106956;28;20020;-70
2021/07/15 03:42:58;;;;;;;3.55;3.25;;;19.20;99.90;;;;;;2107628;28;20397;-70
2021/07/15 03:44:00;;;;;;;4.97;3.70;;;19.30;99.90;;;;;;2107307;28;20016;-70
2021/07/15 03:45:01;;;;;;;7.90;4.07;;;19.30;99.90;;;;;;2107604;28;20070;-70
2021/07/15 03:46:03;;;;;;;4.07;3.25;;;19.30;99.90;;;;;;2107117;28;20525;-70
2021/07/15 03:47:05;;;;;;;4.43;3.40;;;19.30;99.90;;;;;;2107378;28;20020;-70
2021/07/15 03:48:08;;;;;;;7.03;4.07;;;19.30;99.90;;;;;;2107505;28;20032;-70
2021/07/15 03:49:09;;;;;;;8.07;4.10;;;19.30;99.90;;;;;;2107639;28;20020;-70
2021/07/15 03:50:12;;;;;;;3.88;3.10;;;19.30;99.90;;;;;;2106802;28;20055;-70
2021/07/15 03:51:13;;;;;;;6.03;3.90;;;19.40;99.90;;;;;;2106790;28;20114;-70
2021/07/15 03:52:15;;;;;;;4.60;4.30;;;19.40;99.90;;;;;;2106195;28;20461;-70
2021/07/15 03:53:17;;;;;;;3.65;3.35;;;19.40;99.90;;;;;;2114863;28;20501;-70
2021/07/15 03:54:22;;;;;;;5.50;3.90;;;19.40;99.90;;;;;;2114949;28;20098;-70
2021/07/15 03:55:33;;;;;;;3.40;3.08;;;19.40;99.90;;;;;;2107507;28;20024;-70
2021/07/15 03:56:37;;;;;;;5.85;3.38;;;19.40;99.90;;;;;;2098931;28;20390;-70
2021/07/15 03:57:40;;;;;;;4.20;3.63;;;19.40;99.90;;;;;;2103091;28;20032;-70
2021/07/15 03:58:43;;;;;;;3.95;3.60;;;19.40;99.90;;;;;;2107360;28;20020;-70
2021/07/15 03:59:49;;;;;;;3.92;3.17;;;19.40;99.90;;;;;;2107276;28;20348;-70
2021/07/15 04:00:51;;;;;;;9.05;4.00;;;19.40;99.90;;;;;;2107489;28;20581;-70
2021/07/15 04:02:07;;;;;;;4.57;3.20;;;19.40;99.90;;;;;;2106880;28;20031;-70
2021/07/15 04:03:10;;;;;;;4.60;3.42;;;19.40;99.90;;;;;;2106874;28;20016;-70
2021/07/15 04:04:13;;;;;;;9.88;3.90;;;19.40;99.90;;;;;;2106522;28;20978;-70
2021/07/15 04:05:14;;;;;;;6.50;4.20;;;19.40;99.90;;;;;;2107407;28;20021;-71
2021/07/15 04:06:16;;;;;;;4.10;3.45;;;19.40;99.90;;;;;;2107216;28;20024;-70
2021/07/15 04:07:20;;;;;;;3.60;3.30;;;19.40;99.90;;;;;;2107236;28;20118;-70
2021/07/15 04:08:23;;;;;;;6.97;3.28;;;19.50;99.90;;;;;;2106941;28;20073;-70
2021/07/15 04:09:25;;;;;;;4.10;3.05;;;19.50;99.90;;;;;;2107259;28;20024;-70
2021/07/15 04:10:30;;;;;;;3.92;3.50;;;19.50;99.90;;;;;;2107096;28;20794;-70
2021/07/15 04:11:33;;;;;;;3.70;3.40;;;19.50;99.90;;;;;;2107006;28;20020;-70
2021/07/15 04:12:35;;;;;;;4.22;3.42;;;19.50;99.90;;;;;;2107022;28;20063;-70
2021/07/15 04:13:39;;;;;;;4.90;4.03;;;19.50;99.90;;;;;;2107417;28;20024;-70
2021/07/15 04:14:39;;;;;;;3.83;3.53;;;19.50;99.90;;;;;;2106818;28;20065;-70
2021/07/15 04:15:55;;;;;;;5.53;3.20;;;19.50;99.90;;;;;;2107471;28;20024;-70
2021/07/15 04:17:14;;;;;;;3.50;3.20;;;19.50;99.90;;;;;;2106923;28;20056;-70
2021/07/15 04:18:17;;;;;;;3.65;3.33;;;19.50;99.90;;;;;;2107490;28;20086;-70
2021/07/15 04:19:19;;;;;;;5.07;3.90;;;19.50;99.90;;;;;;2107116;28;20024;-70
2021/07/15 04:20:24;;;;;;;5.25;3.70;;;19.50;99.90;;;;;;2107393;28;20021;-70
2021/07/15 04:21:25;;;;;;;3.42;3.22;;;19.60;99.90;;;;;;2106854;28;20113;-70
2021/07/15 04:22:30;;;;;;;3.10;2.78;;;19.50;99.90;;;;;;2107042;28;20021;-70
2021/07/15 04:23:31;;;;;;;7.53;3.92;;;19.60;99.90;;;;;;2106885;28;20111;-70
2021/07/15 04:24:33;;;;;;;4.25;3.30;;;19.60;99.90;;;;;;2106559;28;20597;-69
2021/07/15 04:25:35;;;;;;;2.97;2.53;;;19.60;99.90;;;;;;2106279;28;20020;-70
2021/07/15 04:26:36;;;;;;;3.15;2.85;;;19.60;99.90;;;;;;2106672;28;20040;-70
2021/07/15 04:27:38;;;;;;;4.55;2.72;;;19.60;99.90;;;;;;2106330;28;20100;-70
2021/07/15 04:28:39;;;;;;;2.60;2.40;;;19.60;99.90;;;;;;2106710;28;20016;-70
2021/07/15 04:29:40;;;;;;;3.05;2.22;;;19.60;99.90;;;;;;2106655;28;20107;-70
2021/07/15 04:30:47;;;;;;;3.80;2.30;;;19.70;99.90;;;;;;2106750;28;20471;-70
2021/07/15 04:32:00;;;;;;;2.53;2.00;;;19.80;99.90;;;;;;2105786;28;20034;-70
2021/07/15 04:33:04;;;;;;;2.30;2.10;;;20.00;99.90;;;;;;2106387;28;20101;-70
2021/07/15 04:34:05;;;;;;;5.72;2.53;;;20.20;99.90;;;;;;2106641;28;20479;-70
2021/07/15 04:35:08;;;;;;;5.32;2.28;;;20.40;99.90;;;;;;2106792;28;20012;-70
2021/07/15 04:36:09;;;;;;;3.58;2.55;;;20.50;99.90;;;;;;2106490;28;20103;-70
2021/07/15 04:37:10;;;;;;;4.63;2.38;;;20.70;99.90;;;;;;2106473;28;20115;-70
2021/07/15 04:38:10;;;;;;;2.50;2.03;;;20.80;99.90;;;;;;2106400;28;20020;-70
2021/07/15 04:39:12;;;;;;;3.72;2.13;;;20.90;99.90;;;;;;2105803;28;20077;-70
2021/07/15 04:40:16;;;;;;;3.17;1.92;;;20.90;99.90;;;;;;2105499;28;20620;-70
2021/07/15 04:41:18;;;;;;;2.80;1.55;;;21.00;99.90;;;;;;2106560;28;20476;-70
2021/07/15 04:42:21;;;;;;;2.08;1.88;;;21.00;99.90;;;;;;2105936;28;20028;-70
2021/07/15 04:43:23;;;;;;;3.13;1.98;;;21.00;99.90;;;;;;2106551;28;20020;-70
2021/07/15 04:44:28;;;;;;;1.88;1.77;;;21.00;99.90;;;;;;2106148;28;20044;-70
2021/07/15 04:45:33;;;;;;;2.53;2.00;;;20.90;99.90;;;;;;2106356;28;20103;-70
2021/07/15 04:46:36;;;;;;;3.35;1.83;;;20.90;99.90;;;;;;2106385;28;20016;-70
2021/07/15 04:47:40;;;;;;;1.85;1.75;;;20.90;99.90;;;;;;2106604;28;20020;-70
2021/07/15 04:48:41;;;;;;;2.05;1.95;;;20.90;99.90;;;;;;2106577;28;20482;-70
2021/07/15 04:49:41;;;;;;;3.75;2.28;;;21.00;99.90;;;;;;2106522;28;20392;-70
2021/07/15 04:50:42;;;;;;;1.83;1.70;;;21.00;99.90;;;;;;2105804;28;20483;-70
2021/07/15 04:51:44;;;;;;;6.55;1.92;;;21.00;99.90;;;;;;2105487;28;20024;-70
2021/07/15 04:52:49;;;;;;;2.25;1.42;;;21.00;99.90;;;;;;2106215;28;20051;-70
2021/07/15 04:53:50;;;;;;;2.83;1.90;;;21.00;99.90;;;;;;2106599;28;20050;-70
2021/07/15 04:54:52;;;;;;;2.85;1.88;;;21.10;99.90;;;;;;2105909;28;20023;-70
2021/07/15 04:55:54;;;;;;;1.70;1.60;;;21.10;99.90;;;;;;2106347;28;20023;-70
2021/07/15 04:56:55;;;;;;;2.75;1.65;;;21.10;99.90;;;;;;2106145;28;20031;-70
2021/07/15 04:57:57;;;;;;;1.63;1.52;;;21.20;99.90;;;;;;2106480;28;20463;-70
2021/07/15 04:58:59;;;;;;;3.75;1.80;;;21.20;99.90;;;;;;2105417;28;20028;-70
2021/07/15 05:00:00;;;;;;;2.08;1.80;;;21.30;99.90;;;;;;2106023;28;20532;-70
2021/07/15 05:01:02;;;;;;;1.90;1.80;;;21.30;99.90;;;;;;2105633;28;20031;-70
2021/07/15 05:02:03;;;;;;;3.33;1.90;;;21.30;99.90;;;;;;2105209;28;20016;-70
2021/07/15 05:03:19;;;;;;;2.88;2.05;;;21.40;99.90;;;;;;2106353;28;20016;-70
2021/07/15 05:04:21;;;;;;;1.55;1.45;;;21.40;99.90;;;;;;2106512;28;20511;-70
2021/07/15 05:05:21;;;;;;;2.05;1.50;;;21.50;99.90;;;;;;2106430;28;20028;-70
2021/07/15 05:06:22;;;;;;;2.63;1.42;;;21.50;99.90;;;;;;2106227;28;20091;-70
2021/07/15 05:07:23;;;;;;;1.58;1.48;;;21.60;99.90;;;;;;2106205;28;20093;-70
2021/07/15 05:08:23;;;;;;;1.38;1.27;;;21.70;99.90;;;;;;2106537;28;20035;-71
2021/07/15 05:09:24;;;;;;;3.33;1.63;;;21.70;99.90;;;;;;2106212;28;20036;-70
2021/07/15 05:10:25;;;;;;;2.90;1.60;;;21.80;99.90;;;;;;2106375;28;20032;-71
2021/07/15 05:11:25;;;;;;;1.77;1.67;;;21.80;99.90;;;;;;2105983;28;20391;-70
2021/07/15 05:12:26;;;;;;;1.63;1.45;;;21.90;99.90;;;;;;2106191;28;20112;-70
2021/07/15 05:13:27;;;;;;;2.72;1.67;;;21.90;99.90;;;;;;2106093;28;20043;-70
2021/07/15 05:14:27;;;;;;;1.70;1.60;;;22.00;99.90;;;;;;2106214;28;20030;-70
2021/07/15 05:15:28;;;;;;;2.50;1.45;;;22.00;99.90;;;;;;2105394;28;20122;-70
2021/07/15 05:16:30;;;;;;;3.55;1.50;;;22.10;99.90;;;;;;2105568;28;20101;-70
2021/07/15 05:17:31;;;;;;;4.78;1.42;;;22.10;99.90;;;;;;2106069;28;20035;-70
2021/07/15 05:18:33;;;;;;;2.45;1.35;;;22.10;99.90;;;;;;2106222;28;20036;-70
2021/07/15 05:19:33;;;;;;;1.52;1.42;;;22.10;99.90;;;;;;2106096;28;20096;-70
2021/07/15 05:20:34;;;;;;;2.80;1.50;;;22.10;99.90;;;;;;2106299;28;20073;-71
2021/07/15 05:21:35;;;;;;;2.90;1.42;;;22.10;99.90;;;;;;2105565;28;20512;-71
2021/07/15 05:22:36;;;;;;;3.42;1.30;;;22.10;99.90;;;;;;2106483;28;20024;-71
2021/07/15 05:23:37;;;;;;;6.75;1.58;;;22.10;99.90;;;;;;2106163;28;20051;-71
2021/07/15 05:24:37;;;;;;;2.75;1.15;;;22.20;99.90;;;;;;2106260;28;20024;-71
2021/07/15 05:25:38;;;;;;;2.35;1.33;;;22.20;99.90;;;;;;2105756;28;20020;-71
2021/07/15 05:26:39;;;;;;;1.48;1.38;;;22.20;99.90;;;;;;2068892;28;1072393;-71
2021/07/15 05:27:39;;;;;;;2.60;1.15;;;22.20;99.90;;;;;;2106580;28;20451;-70
2021/07/15 05:28:41;;;;;;;1.50;1.40;;;22.20;99.90;;;;;;2106653;28;20081;-70
2021/07/15 05:29:42;;;;;;;10.25;1.25;;;22.20;99.90;;;;;;2106450;28;20412;-70
2021/07/15 05:30:43;;;;;;;1.35;1.25;;;22.20;99.90;;;;;;2106807;28;20028;-70